sensor_id;sensor_type;location;lat;lon;timestamp;P1;durP1;ratioP1;P2;durP2;ratioP2
15358;SDS011;7779;49.596;11.070;2023-08-21T00:01:14;7.40;;;6.70;;
15358;SDS011;7779;49.596;11.070;2023-08-21T00:03:40;8.03;;;7.43;;
15358;SDS011;7779;49.596;11.070;2023-08-21T00:06:06;8.10;;;7.40;;
15358;SDS011;7779;49.596;11.070;2023-08-21T00:08:31;8.00;;;7.20;;
15358;SDS011;7779;49.596;11.070;2023-08-21T00:10:57;8.40;;;7.70;;
15358;SDS011;7779;49.596;11.070;2023-08-21T00:13:23;8.00;;;7.40;;
15358;SDS011;7779;49.596;11.070;2023-08-21T00:15:48;8.23;;;7.43;;
15358;SDS011;7779;49.596;11.070;2023-08-21T00:18:14;8.57;;;7.77;;
15358;SDS011;7779;49.596;11.070;2023-08-21T00:20:40;9.03;;;8.20;;
15358;SDS011;7779;49.596;11.070;2023-08-21T00:23:07;8.90;;;8.00;;
15358;SDS011;7779;49.596;11.070;2023-08-21T00:25:34;8.40;;;7.60;;
15358;SDS011;7779;49.596;11.070;2023-08-21T00:28:00;7.70;;;7.00;;
15358;SDS011;7779;49.596;11.070;2023-08-21T00:30:26;8.33;;;7.63;;
15358;SDS011;7779;49.596;11.070;2023-08-21T00:32:52;8.67;;;7.70;;
15358;SDS011;7779;49.596;11.070;2023-08-21T00:35:18;8.73;;;8.00;;
15358;SDS011;7779;49.596;11.070;2023-08-21T00:37:44;8.17;;;7.57;;
15358;SDS011;7779;49.596;11.070;2023-08-21T00:40:10;8.63;;;7.87;;
15358;SDS011;7779;49.596;11.070;2023-08-21T00:42:36;8.77;;;7.97;;
15358;SDS011;7779;49.596;11.070;2023-08-21T00:45:02;8.83;;;8.03;;
15358;SDS011;7779;49.596;11.070;2023-08-21T00:47:28;8.43;;;7.63;;
15358;SDS011;7779;49.596;11.070;2023-08-21T00:49:55;9.13;;;8.27;;
15358;SDS011;7779;49.596;11.070;2023-08-21T00:52:21;8.67;;;7.87;;
15358;SDS011;7779;49.596;11.070;2023-08-21T00:54:47;8.90;;;8.00;;
15358;SDS011;7779;49.596;11.070;2023-08-21T00:57:13;8.97;;;8.27;;
15358;SDS011;7779;49.596;11.070;2023-08-21T00:59:40;8.50;;;7.70;;
15358;SDS011;7779;49.596;11.070;2023-08-21T01:02:05;8.20;;;7.50;;
15358;SDS011;7779;49.596;11.070;2023-08-21T01:04:31;8.83;;;8.03;;
15358;SDS011;7779;49.596;11.070;2023-08-21T01:06:57;8.80;;;8.00;;
15358;SDS011;7779;49.596;11.070;2023-08-21T01:09:31;8.67;;;7.93;;
15358;SDS011;7779;49.596;11.070;2023-08-21T01:15:00;7.97;;;7.27;;
15358;SDS011;7779;49.596;11.070;2023-08-21T01:17:35;7.93;;;7.30;;
15358;SDS011;7779;49.596;11.070;2023-08-21T01:20:03;7.87;;;7.17;;
15358;SDS011;7779;49.596;11.070;2023-08-21T01:22:38;8.50;;;7.80;;
15358;SDS011;7779;49.596;11.070;2023-08-21T01:25:06;8.40;;;7.63;;
15358;SDS011;7779;49.596;11.070;2023-08-21T01:27:34;8.80;;;7.80;;
15358;SDS011;7779;49.596;11.070;2023-08-21T01:30:01;9.10;;;8.20;;
15358;SDS011;7779;49.596;11.070;2023-08-21T01:35:05;7.97;;;7.37;;
15358;SDS011;7779;49.596;11.070;2023-08-21T01:37:35;8.13;;;7.33;;
15358;SDS011;7779;49.596;11.070;2023-08-21T01:40:01;8.60;;;7.80;;
15358;SDS011;7779;49.596;11.070;2023-08-21T01:42:27;8.23;;;7.53;;
15358;SDS011;7779;49.596;11.070;2023-08-21T01:44:53;9.00;;;7.07;;
15358;SDS011;7779;49.596;11.070;2023-08-21T01:47:20;8.50;;;7.70;;
15358;SDS011;7779;49.596;11.070;2023-08-21T01:49:46;7.57;;;6.97;;
15358;SDS011;7779;49.596;11.070;2023-08-21T01:52:11;8.60;;;7.70;;
15358;SDS011;7779;49.596;11.070;2023-08-21T01:54:37;7.77;;;7.17;;
15358;SDS011;7779;49.596;11.070;2023-08-21T01:57:03;7.90;;;7.30;;
15358;SDS011;7779;49.596;11.070;2023-08-21T01:59:30;8.57;;;7.77;;
15358;SDS011;7779;49.596;11.070;2023-08-21T02:01:56;8.67;;;7.97;;
15358;SDS011;7779;49.596;11.070;2023-08-21T02:04:22;8.07;;;7.30;;
15358;SDS011;7779;49.596;11.070;2023-08-21T02:06:47;8.27;;;7.53;;
15358;SDS011;7779;49.596;11.070;2023-08-21T02:09:13;8.17;;;7.37;;
15358;SDS011;7779;49.596;11.070;2023-08-21T02:11:39;8.57;;;7.87;;
15358;SDS011;7779;49.596;11.070;2023-08-21T02:14:04;8.43;;;7.60;;
15358;SDS011;7779;49.596;11.070;2023-08-21T02:16:30;8.87;;;8.07;;
15358;SDS011;7779;49.596;11.070;2023-08-21T02:18:56;8.80;;;7.97;;
15358;SDS011;7779;49.596;11.070;2023-08-21T02:21:22;8.63;;;7.80;;
15358;SDS011;7779;49.596;11.070;2023-08-21T02:23:48;8.07;;;7.37;;
15358;SDS011;7779;49.596;11.070;2023-08-21T02:26:14;8.10;;;7.40;;
15358;SDS011;7779;49.596;11.070;2023-08-21T02:28:41;8.90;;;7.57;;
15358;SDS011;7779;49.596;11.070;2023-08-21T02:31:09;7.90;;;7.20;;
15358;SDS011;7779;49.596;11.070;2023-08-21T02:33:35;8.07;;;7.37;;
15358;SDS011;7779;49.596;11.070;2023-08-21T02:36:01;9.27;;;8.23;;
15358;SDS011;7779;49.596;11.070;2023-08-21T02:38:29;7.90;;;7.23;;
15358;SDS011;7779;49.596;11.070;2023-08-21T02:40:56;8.90;;;8.20;;
15358;SDS011;7779;49.596;11.070;2023-08-21T02:43:21;8.90;;;8.20;;
15358;SDS011;7779;49.596;11.070;2023-08-21T02:45:47;8.07;;;7.37;;
15358;SDS011;7779;49.596;11.070;2023-08-21T02:48:13;8.73;;;7.93;;
15358;SDS011;7779;49.596;11.070;2023-08-21T02:50:38;8.57;;;7.87;;
15358;SDS011;7779;49.596;11.070;2023-08-21T02:53:04;8.83;;;8.03;;
15358;SDS011;7779;49.596;11.070;2023-08-21T02:55:30;8.77;;;8.03;;
15358;SDS011;7779;49.596;11.070;2023-08-21T02:57:56;7.73;;;7.13;;
15358;SDS011;7779;49.596;11.070;2023-08-21T03:00:22;8.50;;;7.73;;
15358;SDS011;7779;49.596;11.070;2023-08-21T03:02:48;8.60;;;7.80;;
15358;SDS011;7779;49.596;11.070;2023-08-21T03:05:13;8.13;;;7.43;;
15358;SDS011;7779;49.596;11.070;2023-08-21T03:07:39;8.23;;;7.50;;
15358;SDS011;7779;49.596;11.070;2023-08-21T03:10:05;8.43;;;7.73;;
15358;SDS011;7779;49.596;11.070;2023-08-21T03:12:33;8.23;;;7.53;;
15358;SDS011;7779;49.596;11.070;2023-08-21T03:14:59;8.57;;;7.80;;
15358;SDS011;7779;49.596;11.070;2023-08-21T03:17:25;8.70;;;7.90;;
15358;SDS011;7779;49.596;11.070;2023-08-21T03:19:51;8.43;;;7.70;;
15358;SDS011;7779;49.596;11.070;2023-08-21T03:22:16;9.10;;;8.30;;
15358;SDS011;7779;49.596;11.070;2023-08-21T03:24:42;8.30;;;7.70;;
15358;SDS011;7779;49.596;11.070;2023-08-21T03:27:08;8.80;;;8.10;;
15358;SDS011;7779;49.596;11.070;2023-08-21T03:29:34;8.70;;;8.00;;
15358;SDS011;7779;49.596;11.070;2023-08-21T03:32:00;8.63;;;7.93;;
15358;SDS011;7779;49.596;11.070;2023-08-21T03:34:26;8.60;;;7.80;;
15358;SDS011;7779;49.596;11.070;2023-08-21T03:36:56;8.70;;;7.97;;
15358;SDS011;7779;49.596;11.070;2023-08-21T03:39:22;8.53;;;7.83;;
15358;SDS011;7779;49.596;11.070;2023-08-21T03:41:48;8.97;;;8.17;;
15358;SDS011;7779;49.596;11.070;2023-08-21T03:44:15;9.30;;;8.50;;
15358;SDS011;7779;49.596;11.070;2023-08-21T03:46:40;9.00;;;8.30;;
15358;SDS011;7779;49.596;11.070;2023-08-21T03:49:07;8.03;;;7.23;;
15358;SDS011;7779;49.596;11.070;2023-08-21T03:51:33;8.77;;;8.10;;
15358;SDS011;7779;49.596;11.070;2023-08-21T03:53:59;11.37;;;9.40;;
15358;SDS011;7779;49.596;11.070;2023-08-21T03:56:25;10.20;;;9.20;;
15358;SDS011;7779;49.596;11.070;2023-08-21T03:58:50;10.60;;;9.70;;
15358;SDS011;7779;49.596;11.070;2023-08-21T04:01:16;11.03;;;10.03;;
15358;SDS011;7779;49.596;11.070;2023-08-21T04:03:42;12.87;;;11.53;;
15358;SDS011;7779;49.596;11.070;2023-08-21T04:06:07;13.00;;;11.87;;
15358;SDS011;7779;49.596;11.070;2023-08-21T04:08:33;13.03;;;11.83;;
15358;SDS011;7779;49.596;11.070;2023-08-21T04:10:59;13.93;;;12.73;;
15358;SDS011;7779;49.596;11.070;2023-08-21T04:13:27;14.27;;;12.77;;
15358;SDS011;7779;49.596;11.070;2023-08-21T04:15:53;13.67;;;12.27;;
15358;SDS011;7779;49.596;11.070;2023-08-21T04:18:21;11.93;;;10.90;;
15358;SDS011;7779;49.596;11.070;2023-08-21T04:20:49;12.13;;;11.10;;
15358;SDS011;7779;49.596;11.070;2023-08-21T04:23:15;12.03;;;10.93;;
15358;SDS011;7779;49.596;11.070;2023-08-21T04:25:41;12.03;;;10.87;;
15358;SDS011;7779;49.596;11.070;2023-08-21T04:28:08;12.40;;;11.20;;
15358;SDS011;7779;49.596;11.070;2023-08-21T04:30:34;12.80;;;11.17;;
15358;SDS011;7779;49.596;11.070;2023-08-21T04:33:00;12.93;;;11.77;;
15358;SDS011;7779;49.596;11.070;2023-08-21T04:35:27;13.63;;;12.33;;
15358;SDS011;7779;49.596;11.070;2023-08-21T04:37:55;14.13;;;12.73;;
15358;SDS011;7779;49.596;11.070;2023-08-21T04:40:23;14.17;;;12.87;;
15358;SDS011;7779;49.596;11.070;2023-08-21T04:42:50;13.97;;;12.63;;
15358;SDS011;7779;49.596;11.070;2023-08-21T04:45:17;13.77;;;12.47;;
15358;SDS011;7779;49.596;11.070;2023-08-21T04:47:43;14.27;;;12.87;;
15358;SDS011;7779;49.596;11.070;2023-08-21T04:50:09;13.80;;;12.37;;
15358;SDS011;7779;49.596;11.070;2023-08-21T04:52:34;14.07;;;12.77;;
15358;SDS011;7779;49.596;11.070;2023-08-21T04:55:00;14.70;;;13.20;;
15358;SDS011;7779;49.596;11.070;2023-08-21T04:57:27;14.40;;;13.10;;
15358;SDS011;7779;49.596;11.070;2023-08-21T04:59:53;13.67;;;12.33;;
15358;SDS011;7779;49.596;11.070;2023-08-21T05:02:21;14.13;;;12.73;;
15358;SDS011;7779;49.596;11.070;2023-08-21T05:04:48;14.63;;;13.40;;
15358;SDS011;7779;49.596;11.070;2023-08-21T05:07:14;14.63;;;13.13;;
15358;SDS011;7779;49.596;11.070;2023-08-21T05:09:40;13.67;;;12.47;;
15358;SDS011;7779;49.596;11.070;2023-08-21T05:12:08;13.80;;;12.50;;
15358;SDS011;7779;49.596;11.070;2023-08-21T05:14:33;14.13;;;12.83;;
15358;SDS011;7779;49.596;11.070;2023-08-21T05:17:00;12.70;;;11.50;;
15358;SDS011;7779;49.596;11.070;2023-08-21T05:19:25;12.43;;;11.33;;
15358;SDS011;7779;49.596;11.070;2023-08-21T05:21:51;13.57;;;12.37;;
15358;SDS011;7779;49.596;11.070;2023-08-21T05:24:17;14.00;;;12.67;;
15358;SDS011;7779;49.596;11.070;2023-08-21T05:26:48;13.70;;;12.40;;
15358;SDS011;7779;49.596;11.070;2023-08-21T05:29:14;13.53;;;12.33;;
15358;SDS011;7779;49.596;11.070;2023-08-21T05:31:40;13.20;;;11.87;;
15358;SDS011;7779;49.596;11.070;2023-08-21T05:34:07;13.57;;;12.37;;
15358;SDS011;7779;49.596;11.070;2023-08-21T05:36:33;14.30;;;12.90;;
15358;SDS011;7779;49.596;11.070;2023-08-21T05:39:01;13.80;;;12.43;;
15358;SDS011;7779;49.596;11.070;2023-08-21T05:41:32;13.93;;;12.73;;
15358;SDS011;7779;49.596;11.070;2023-08-21T05:43:58;14.30;;;12.90;;
15358;SDS011;7779;49.596;11.070;2023-08-21T05:46:25;13.77;;;12.53;;
15358;SDS011;7779;49.596;11.070;2023-08-21T05:48:50;14.37;;;12.37;;
15358;SDS011;7779;49.596;11.070;2023-08-21T05:51:16;13.23;;;12.03;;
15358;SDS011;7779;49.596;11.070;2023-08-21T05:53:42;13.47;;;12.17;;
15358;SDS011;7779;49.596;11.070;2023-08-21T05:56:08;12.50;;;11.40;;
15358;SDS011;7779;49.596;11.070;2023-08-21T05:58:34;13.80;;;12.60;;
15358;SDS011;7779;49.596;11.070;2023-08-21T06:01:00;13.70;;;12.40;;
15358;SDS011;7779;49.596;11.070;2023-08-21T06:03:26;13.33;;;12.03;;
15358;SDS011;7779;49.596;11.070;2023-08-21T06:06:12;13.20;;;11.90;;
15358;SDS011;7779;49.596;11.070;2023-08-21T06:08:39;14.17;;;12.60;;
15358;SDS011;7779;49.596;11.070;2023-08-21T06:11:04;13.33;;;12.07;;
15358;SDS011;7779;49.596;11.070;2023-08-21T06:13:30;13.77;;;12.27;;
15358;SDS011;7779;49.596;11.070;2023-08-21T06:15:56;13.80;;;12.00;;
15358;SDS011;7779;49.596;11.070;2023-08-21T06:18:23;12.33;;;11.20;;
15358;SDS011;7779;49.596;11.070;2023-08-21T06:20:49;12.50;;;11.30;;
15358;SDS011;7779;49.596;11.070;2023-08-21T06:23:19;11.97;;;10.87;;
15358;SDS011;7779;49.596;11.070;2023-08-21T06:25:49;11.70;;;10.60;;
15358;SDS011;7779;49.596;11.070;2023-08-21T06:28:23;12.00;;;10.90;;
15358;SDS011;7779;49.596;11.070;2023-08-21T06:30:55;11.67;;;10.57;;
15358;SDS011;7779;49.596;11.070;2023-08-21T06:33:29;10.83;;;9.83;;
15358;SDS011;7779;49.596;11.070;2023-08-21T06:35:55;11.17;;;10.17;;
15358;SDS011;7779;49.596;11.070;2023-08-21T06:38:21;11.47;;;10.47;;
15358;SDS011;7779;49.596;11.070;2023-08-21T06:40:47;11.47;;;10.43;;
15358;SDS011;7779;49.596;11.070;2023-08-21T06:43:12;11.50;;;10.40;;
15358;SDS011;7779;49.596;11.070;2023-08-21T06:45:42;11.43;;;10.33;;
15358;SDS011;7779;49.596;11.070;2023-08-21T06:48:08;11.30;;;10.23;;
15358;SDS011;7779;49.596;11.070;2023-08-21T06:50:34;11.37;;;10.47;;
15358;SDS011;7779;49.596;11.070;2023-08-21T06:53:02;10.80;;;9.90;;
15358;SDS011;7779;49.596;11.070;2023-08-21T06:55:28;10.97;;;9.97;;
15358;SDS011;7779;49.596;11.070;2023-08-21T06:57:53;10.90;;;10.00;;
15358;SDS011;7779;49.596;11.070;2023-08-21T07:00:19;10.73;;;9.90;;
15358;SDS011;7779;49.596;11.070;2023-08-21T07:02:45;11.37;;;10.33;;
15358;SDS011;7779;49.596;11.070;2023-08-21T07:05:11;12.37;;;10.03;;
15358;SDS011;7779;49.596;11.070;2023-08-21T07:07:36;10.70;;;9.70;;
15358;SDS011;7779;49.596;11.070;2023-08-21T07:10:02;10.67;;;9.77;;
15358;SDS011;7779;49.596;11.070;2023-08-21T07:12:28;10.13;;;9.33;;
15358;SDS011;7779;49.596;11.070;2023-08-21T07:14:54;11.60;;;10.40;;
15358;SDS011;7779;49.596;11.070;2023-08-21T07:17:20;11.07;;;10.07;;
15358;SDS011;7779;49.596;11.070;2023-08-21T07:19:45;11.77;;;10.77;;
15358;SDS011;7779;49.596;11.070;2023-08-21T07:22:11;12.17;;;11.00;;
15358;SDS011;7779;49.596;11.070;2023-08-21T07:24:37;10.77;;;9.87;;
15358;SDS011;7779;49.596;11.070;2023-08-21T07:27:03;10.47;;;9.57;;
15358;SDS011;7779;49.596;11.070;2023-08-21T07:29:29;9.73;;;8.73;;
15358;SDS011;7779;49.596;11.070;2023-08-21T07:31:55;10.50;;;9.53;;
15358;SDS011;7779;49.596;11.070;2023-08-21T07:34:21;9.70;;;8.90;;
15358;SDS011;7779;49.596;11.070;2023-08-21T07:36:46;10.40;;;9.60;;
15358;SDS011;7779;49.596;11.070;2023-08-21T07:39:12;10.40;;;9.60;;
15358;SDS011;7779;49.596;11.070;2023-08-21T07:41:38;10.80;;;9.83;;
15358;SDS011;7779;49.596;11.070;2023-08-21T07:44:03;10.27;;;9.30;;
15358;SDS011;7779;49.596;11.070;2023-08-21T07:46:29;9.43;;;8.73;;
15358;SDS011;7779;49.596;11.070;2023-08-21T07:48:55;10.03;;;9.23;;
15358;SDS011;7779;49.596;11.070;2023-08-21T07:51:20;10.37;;;9.47;;
15358;SDS011;7779;49.596;11.070;2023-08-21T07:53:46;9.60;;;8.80;;
15358;SDS011;7779;49.596;11.070;2023-08-21T07:56:12;8.77;;;8.07;;
15358;SDS011;7779;49.596;11.070;2023-08-21T07:58:37;9.70;;;8.80;;
15358;SDS011;7779;49.596;11.070;2023-08-21T08:01:03;9.47;;;8.50;;
15358;SDS011;7779;49.596;11.070;2023-08-21T08:03:32;10.03;;;9.03;;
15358;SDS011;7779;49.596;11.070;2023-08-21T08:05:57;9.50;;;8.67;;
15358;SDS011;7779;49.596;11.070;2023-08-21T08:08:23;9.30;;;8.60;;
15358;SDS011;7779;49.596;11.070;2023-08-21T08:10:49;9.83;;;8.93;;
15358;SDS011;7779;49.596;11.070;2023-08-21T08:13:15;9.27;;;8.57;;
15358;SDS011;7779;49.596;11.070;2023-08-21T08:15:41;9.30;;;8.43;;
15358;SDS011;7779;49.596;11.070;2023-08-21T08:18:10;8.93;;;8.23;;
15358;SDS011;7779;49.596;11.070;2023-08-21T08:20:39;9.50;;;8.60;;
15358;SDS011;7779;49.596;11.070;2023-08-21T08:23:05;8.17;;;7.57;;
15358;SDS011;7779;49.596;11.070;2023-08-21T08:25:31;8.97;;;8.13;;
15358;SDS011;7779;49.596;11.070;2023-08-21T08:27:56;9.20;;;8.37;;
15358;SDS011;7779;49.596;11.070;2023-08-21T08:30:22;8.73;;;8.10;;
15358;SDS011;7779;49.596;11.070;2023-08-21T08:32:49;8.80;;;8.00;;
15358;SDS011;7779;49.596;11.070;2023-08-21T08:35:14;8.57;;;7.87;;
15358;SDS011;7779;49.596;11.070;2023-08-21T08:37:43;8.70;;;8.00;;
15358;SDS011;7779;49.596;11.070;2023-08-21T08:40:12;8.63;;;7.93;;
15358;SDS011;7779;49.596;11.070;2023-08-21T08:42:38;9.27;;;8.43;;
15358;SDS011;7779;49.596;11.070;2023-08-21T08:45:04;9.27;;;8.40;;
15358;SDS011;7779;49.596;11.070;2023-08-21T08:47:31;8.40;;;7.70;;
15358;SDS011;7779;49.596;11.070;2023-08-21T08:50:00;9.23;;;8.43;;
15358;SDS011;7779;49.596;11.070;2023-08-21T08:52:35;9.13;;;8.43;;
15358;SDS011;7779;49.596;11.070;2023-08-21T08:55:03;8.83;;;8.13;;
15358;SDS011;7779;49.596;11.070;2023-08-21T08:57:31;9.93;;;9.13;;
15358;SDS011;7779;49.596;11.070;2023-08-21T08:59:57;9.63;;;8.83;;
15358;SDS011;7779;49.596;11.070;2023-08-21T09:02:26;9.73;;;8.80;;
15358;SDS011;7779;49.596;11.070;2023-08-21T09:04:53;9.30;;;8.60;;
15358;SDS011;7779;49.596;11.070;2023-08-21T09:07:19;10.33;;;9.43;;
15358;SDS011;7779;49.596;11.070;2023-08-21T09:09:46;9.60;;;8.80;;
15358;SDS011;7779;49.596;11.070;2023-08-21T09:12:17;9.90;;;9.10;;
15358;SDS011;7779;49.596;11.070;2023-08-21T09:14:44;10.00;;;9.17;;
15358;SDS011;7779;49.596;11.070;2023-08-21T09:17:11;9.43;;;8.63;;
15358;SDS011;7779;49.596;11.070;2023-08-21T09:19:38;9.43;;;8.67;;
15358;SDS011;7779;49.596;11.070;2023-08-21T09:22:17;9.83;;;9.03;;
15358;SDS011;7779;49.596;11.070;2023-08-21T09:25:26;9.23;;;8.50;;
15358;SDS011;7779;49.596;11.070;2023-08-21T09:27:35;9.50;;;8.60;;
15358;SDS011;7779;49.596;11.070;2023-08-21T09:30:04;9.63;;;8.83;;
15358;SDS011;7779;49.596;11.070;2023-08-21T09:35:21;8.70;;;8.00;;
15358;SDS011;7779;49.596;11.070;2023-08-21T09:37:48;8.20;;;7.50;;
15358;SDS011;7779;49.596;11.070;2023-08-21T09:40:17;8.50;;;7.77;;
15358;SDS011;7779;49.596;11.070;2023-08-21T09:42:45;8.27;;;7.47;;
15358;SDS011;7779;49.596;11.070;2023-08-21T09:45:10;8.20;;;7.57;;
15358;SDS011;7779;49.596;11.070;2023-08-21T09:47:37;8.87;;;8.17;;
15358;SDS011;7779;49.596;11.070;2023-08-21T09:50:04;8.27;;;7.57;;
15358;SDS011;7779;49.596;11.070;2023-08-21T09:52:31;8.23;;;7.50;;
15358;SDS011;7779;49.596;11.070;2023-08-21T09:54:57;7.40;;;6.80;;
15358;SDS011;7779;49.596;11.070;2023-08-21T09:57:24;7.87;;;7.17;;
15358;SDS011;7779;49.596;11.070;2023-08-21T09:59:53;8.17;;;7.57;;
15358;SDS011;7779;49.596;11.070;2023-08-21T10:02:20;7.40;;;6.80;;
15358;SDS011;7779;49.596;11.070;2023-08-21T10:04:48;7.00;;;6.50;;
15358;SDS011;7779;49.596;11.070;2023-08-21T10:07:24;7.00;;;6.37;;
15358;SDS011;7779;49.596;11.070;2023-08-21T10:09:53;7.03;;;6.43;;
15358;SDS011;7779;49.596;11.070;2023-08-21T10:12:20;7.47;;;6.77;;
15358;SDS011;7779;49.596;11.070;2023-08-21T10:14:47;6.53;;;6.03;;
15358;SDS011;7779;49.596;11.070;2023-08-21T10:17:13;6.63;;;6.13;;
15358;SDS011;7779;49.596;11.070;2023-08-21T10:19:39;6.90;;;6.30;;
15358;SDS011;7779;49.596;11.070;2023-08-21T10:22:04;6.80;;;6.13;;
15358;SDS011;7779;49.596;11.070;2023-08-21T10:24:34;6.83;;;6.33;;
15358;SDS011;7779;49.596;11.070;2023-08-21T10:27:03;6.87;;;6.13;;
15358;SDS011;7779;49.596;11.070;2023-08-21T10:29:29;5.87;;;5.40;;
15358;SDS011;7779;49.596;11.070;2023-08-21T10:31:59;6.70;;;6.10;;
15358;SDS011;7779;49.596;11.070;2023-08-21T10:34:31;6.43;;;5.93;;
15358;SDS011;7779;49.596;11.070;2023-08-21T10:37:06;6.50;;;6.00;;
15358;SDS011;7779;49.596;11.070;2023-08-21T10:39:37;6.40;;;5.90;;
15358;SDS011;7779;49.596;11.070;2023-08-21T10:47:17;5.23;;;4.83;;
15358;SDS011;7779;49.596;11.070;2023-08-21T10:49:57;4.97;;;4.57;;
15358;SDS011;7779;49.596;11.070;2023-08-21T10:52:29;5.10;;;4.60;;
15358;SDS011;7779;49.596;11.070;2023-08-21T10:55:03;5.23;;;4.73;;
15358;SDS011;7779;49.596;11.070;2023-08-21T10:57:30;5.33;;;4.60;;
15358;SDS011;7779;49.596;11.070;2023-08-21T11:02:36;4.93;;;4.47;;
15358;SDS011;7779;49.596;11.070;2023-08-21T11:05:04;5.00;;;4.60;;
15358;SDS011;7779;49.596;11.070;2023-08-21T11:07:48;4.63;;;4.27;;
15358;SDS011;7779;49.596;11.070;2023-08-21T11:10:18;4.60;;;4.20;;
15358;SDS011;7779;49.596;11.070;2023-08-21T11:12:49;5.00;;;4.60;;
15358;SDS011;7779;49.596;11.070;2023-08-21T11:15:23;5.10;;;4.70;;
15358;SDS011;7779;49.596;11.070;2023-08-21T11:18:00;5.50;;;4.73;;
15358;SDS011;7779;49.596;11.070;2023-08-21T11:20:31;4.97;;;4.57;;
15358;SDS011;7779;49.596;11.070;2023-08-21T11:23:01;4.97;;;4.57;;
15358;SDS011;7779;49.596;11.070;2023-08-21T11:25:33;5.90;;;4.73;;
15358;SDS011;7779;49.596;11.070;2023-08-21T11:27:59;5.10;;;4.70;;
15358;SDS011;7779;49.596;11.070;2023-08-21T11:30:32;5.37;;;4.90;;
15358;SDS011;7779;49.596;11.070;2023-08-21T11:33:07;6.33;;;5.73;;
15358;SDS011;7779;49.596;11.070;2023-08-21T11:35:35;6.13;;;5.63;;
15358;SDS011;7779;49.596;11.070;2023-08-21T11:38:03;6.10;;;4.97;;
15358;SDS011;7779;49.596;11.070;2023-08-21T11:40:30;5.30;;;4.90;;
15358;SDS011;7779;49.596;11.070;2023-08-21T11:43:02;5.20;;;4.70;;
15358;SDS011;7779;49.596;11.070;2023-08-21T11:45:30;6.23;;;5.10;;
15358;SDS011;7779;49.596;11.070;2023-08-21T11:47:56;5.10;;;4.70;;
15358;SDS011;7779;49.596;11.070;2023-08-21T11:50:22;4.83;;;4.43;;
15358;SDS011;7779;49.596;11.070;2023-08-21T11:52:51;5.37;;;4.87;;
15358;SDS011;7779;49.596;11.070;2023-08-21T11:55:17;5.07;;;4.67;;
15358;SDS011;7779;49.596;11.070;2023-08-21T11:57:47;4.87;;;4.50;;
15358;SDS011;7779;49.596;11.070;2023-08-21T12:00:17;6.13;;;5.30;;
15358;SDS011;7779;49.596;11.070;2023-08-21T12:02:54;5.20;;;4.80;;
15358;SDS011;7779;49.596;11.070;2023-08-21T12:05:26;4.93;;;4.53;;
15358;SDS011;7779;49.596;11.070;2023-08-21T12:07:53;5.33;;;4.83;;
15358;SDS011;7779;49.596;11.070;2023-08-21T12:10:23;4.93;;;4.53;;
15358;SDS011;7779;49.596;11.070;2023-08-21T12:12:53;4.97;;;4.60;;
15358;SDS011;7779;49.596;11.070;2023-08-21T12:15:21;4.77;;;4.40;;
15358;SDS011;7779;49.596;11.070;2023-08-21T12:17:46;5.70;;;5.10;;
15358;SDS011;7779;49.596;11.070;2023-08-21T12:20:12;4.70;;;4.33;;
15358;SDS011;7779;49.596;11.070;2023-08-21T12:22:39;5.13;;;4.73;;
15358;SDS011;7779;49.596;11.070;2023-08-21T12:25:06;5.20;;;4.73;;
15358;SDS011;7779;49.596;11.070;2023-08-21T12:27:32;5.13;;;4.73;;
15358;SDS011;7779;49.596;11.070;2023-08-21T12:29:58;5.13;;;4.73;;
15358;SDS011;7779;49.596;11.070;2023-08-21T12:32:24;5.27;;;4.77;;
15358;SDS011;7779;49.596;11.070;2023-08-21T12:34:50;4.70;;;4.30;;
15358;SDS011;7779;49.596;11.070;2023-08-21T12:37:15;5.17;;;4.67;;
15358;SDS011;7779;49.596;11.070;2023-08-21T12:39:41;4.93;;;4.53;;
15358;SDS011;7779;49.596;11.070;2023-08-21T12:42:07;4.73;;;4.30;;
15358;SDS011;7779;49.596;11.070;2023-08-21T12:44:33;5.67;;;4.47;;
15358;SDS011;7779;49.596;11.070;2023-08-21T12:46:59;4.87;;;4.40;;
15358;SDS011;7779;49.596;11.070;2023-08-21T12:49:25;4.77;;;4.40;;
15358;SDS011;7779;49.596;11.070;2023-08-21T12:51:51;4.77;;;4.30;;
15358;SDS011;7779;49.596;11.070;2023-08-21T12:54:17;5.13;;;4.53;;
15358;SDS011;7779;49.596;11.070;2023-08-21T12:56:43;5.43;;;4.97;;
15358;SDS011;7779;49.596;11.070;2023-08-21T12:59:09;5.60;;;4.30;;
15358;SDS011;7779;49.596;11.070;2023-08-21T13:01:34;4.70;;;4.30;;
15358;SDS011;7779;49.596;11.070;2023-08-21T13:04:02;4.53;;;4.23;;
15358;SDS011;7779;49.596;11.070;2023-08-21T13:06:28;5.10;;;4.63;;
15358;SDS011;7779;49.596;11.070;2023-08-21T13:08:54;4.70;;;4.30;;
15358;SDS011;7779;49.596;11.070;2023-08-21T13:11:20;4.70;;;4.30;;
15358;SDS011;7779;49.596;11.070;2023-08-21T13:13:45;4.60;;;4.20;;
15358;SDS011;7779;49.596;11.070;2023-08-21T13:16:11;4.57;;;4.17;;
15358;SDS011;7779;49.596;11.070;2023-08-21T13:18:37;4.83;;;3.93;;
15358;SDS011;7779;49.596;11.070;2023-08-21T13:21:03;4.37;;;3.97;;
15358;SDS011;7779;49.596;11.070;2023-08-21T13:23:29;4.73;;;4.30;;
15358;SDS011;7779;49.596;11.070;2023-08-21T13:25:56;4.20;;;3.80;;
15358;SDS011;7779;49.596;11.070;2023-08-21T13:28:23;4.27;;;3.93;;
15358;SDS011;7779;49.596;11.070;2023-08-21T13:30:49;4.30;;;3.90;;
15358;SDS011;7779;49.596;11.070;2023-08-21T13:33:15;4.53;;;3.87;;
15358;SDS011;7779;49.596;11.070;2023-08-21T13:35:43;4.30;;;3.90;;
15358;SDS011;7779;49.596;11.070;2023-08-21T13:38:10;3.83;;;3.43;;
15358;SDS011;7779;49.596;11.070;2023-08-21T13:40:38;4.00;;;3.20;;
15358;SDS011;7779;49.596;11.070;2023-08-21T13:43:05;3.93;;;3.57;;
15358;SDS011;7779;49.596;11.070;2023-08-21T13:45:32;4.10;;;3.80;;
15358;SDS011;7779;49.596;11.070;2023-08-21T13:47:58;3.50;;;3.30;;
15358;SDS011;7779;49.596;11.070;2023-08-21T13:50:24;4.23;;;3.80;;
15358;SDS011;7779;49.596;11.070;2023-08-21T13:52:50;3.70;;;3.40;;
15358;SDS011;7779;49.596;11.070;2023-08-21T13:55:15;3.80;;;3.50;;
15358;SDS011;7779;49.596;11.070;2023-08-21T13:57:42;4.90;;;3.70;;
15358;SDS011;7779;49.596;11.070;2023-08-21T14:00:09;4.20;;;3.47;;
15358;SDS011;7779;49.596;11.070;2023-08-21T14:02:37;3.90;;;3.50;;
15358;SDS011;7779;49.596;11.070;2023-08-21T14:05:05;4.60;;;3.30;;
15358;SDS011;7779;49.596;11.070;2023-08-21T14:07:31;3.37;;;3.07;;
15358;SDS011;7779;49.596;11.070;2023-08-21T14:09:57;3.60;;;3.30;;
15358;SDS011;7779;49.596;11.070;2023-08-21T14:12:23;3.93;;;3.60;;
15358;SDS011;7779;49.596;11.070;2023-08-21T14:14:49;4.27;;;3.87;;
15358;SDS011;7779;49.596;11.070;2023-08-21T14:17:15;3.97;;;3.50;;
15358;SDS011;7779;49.596;11.070;2023-08-21T14:19:41;3.60;;;3.30;;
15358;SDS011;7779;49.596;11.070;2023-08-21T14:22:06;3.80;;;3.30;;
15358;SDS011;7779;49.596;11.070;2023-08-21T14:24:32;3.30;;;3.10;;
15358;SDS011;7779;49.596;11.070;2023-08-21T14:26:58;3.63;;;3.33;;
15358;SDS011;7779;49.596;11.070;2023-08-21T14:29:24;3.80;;;3.50;;
15358;SDS011;7779;49.596;11.070;2023-08-21T14:31:50;3.50;;;2.90;;
15358;SDS011;7779;49.596;11.070;2023-08-21T14:34:18;3.57;;;3.20;;
15358;SDS011;7779;49.596;11.070;2023-08-21T14:36:45;3.57;;;3.27;;
15358;SDS011;7779;49.596;11.070;2023-08-21T14:39:13;3.40;;;3.13;;
15358;SDS011;7779;49.596;11.070;2023-08-21T14:41:43;3.80;;;3.03;;
15358;SDS011;7779;49.596;11.070;2023-08-21T14:44:09;3.73;;;3.43;;
15358;SDS011;7779;49.596;11.070;2023-08-21T14:46:35;4.47;;;3.77;;
15358;SDS011;7779;49.596;11.070;2023-08-21T14:49:02;3.80;;;3.50;;
15358;SDS011;7779;49.596;11.070;2023-08-21T14:51:27;3.67;;;3.37;;
15358;SDS011;7779;49.596;11.070;2023-08-21T14:53:53;3.43;;;3.13;;
15358;SDS011;7779;49.596;11.070;2023-08-21T14:56:20;4.10;;;3.33;;